sensor_id;sensor_type;location;lat;lon;timestamp;pressure;altitude;pressure_sealevel;temperature;humidity
11448;BME280;43755;49.736;8.734;2023-02-19T00:01:34;98278.72;;;8.31;100.00
11448;BME280;43755;49.736;8.734;2023-02-19T00:03:36;98290.44;;;8.19;100.00
11448;BME280;43755;49.736;8.734;2023-02-19T00:05:38;98291.78;;;8.03;100.00
11448;BME280;43755;49.736;8.734;2023-02-19T00:07:39;98291.91;;;8.00;100.00
11448;BME280;43755;49.736;8.734;2023-02-19T00:09:42;98285.81;;;7.96;100.00
11448;BME280;43755;49.736;8.734;2023-02-19T00:11:45;98301.72;;;7.93;100.00
11448;BME280;43755;49.736;8.734;2023-02-19T00:13:48;98291.16;;;7.95;100.00
11448;BME280;43755;49.736;8.734;2023-02-19T00:15:50;98283.25;;;7.95;100.00
11448;BME280;43755;49.736;8.734;2023-02-19T00:17:51;98269.22;;;7.94;100.00
11448;BME280;43755;49.736;8.734;2023-02-19T00:19:53;98272.66;;;7.96;100.00
11448;BME280;43755;49.736;8.734;2023-02-19T00:21:54;98273.53;;;7.97;100.00
11448;BME280;43755;49.736;8.734;2023-02-19T00:23:57;98282.41;;;7.94;100.00
11448;BME280;43755;49.736;8.734;2023-02-19T00:26:01;98276.09;;;8.00;100.00
11448;BME280;43755;49.736;8.734;2023-02-19T00:28:05;98283.16;;;7.98;100.00
11448;BME280;43755;49.736;8.734;2023-02-19T00:30:07;98284.91;;;7.99;100.00
11448;BME280;43755;49.736;8.734;2023-02-19T00:32:08;98277.91;;;7.98;100.00
11448;BME280;43755;49.736;8.734;2023-02-19T00:34:11;98279.63;;;7.99;100.00
11448;BME280;43755;49.736;8.734;2023-02-19T00:36:13;98270.84;;;7.98;100.00
11448;BME280;43755;49.736;8.734;2023-02-19T00:38:15;98275.28;;;7.96;100.00
11448;BME280;43755;49.736;8.734;2023-02-19T00:40:16;98276.16;;;7.97;100.00
11448;BME280;43755;49.736;8.734;2023-02-19T00:42:18;98261.19;;;7.99;100.00
11448;BME280;43755;49.736;8.734;2023-02-19T00:44:21;98263.88;;;7.96;100.00
11448;BME280;43755;49.736;8.734;2023-02-19T00:46:24;98256.94;;;7.93;100.00
11448;BME280;43755;49.736;8.734;2023-02-19T00:48:25;98263.88;;;7.96;100.00
11448;BME280;43755;49.736;8.734;2023-02-19T00:50:27;98269.09;;;7.99;100.00
11448;BME280;43755;49.736;8.734;2023-02-19T00:52:28;98259.44;;;7.98;100.00
11448;BME280;43755;49.736;8.734;2023-02-19T00:54:30;98246.31;;;7.96;100.00
11448;BME280;43755;49.736;8.734;2023-02-19T00:56:31;98261.22;;;7.97;100.00
11448;BME280;43755;49.736;8.734;2023-02-19T00:58:33;98269.13;;;7.97;100.00
11448;BME280;43755;49.736;8.734;2023-02-19T01:00:36;98267.47;;;7.95;100.00
11448;BME280;43755;49.736;8.734;2023-02-19T01:02:37;98277.94;;;7.96;100.00
11448;BME280;43755;49.736;8.734;2023-02-19T01:04:39;98280.56;;;7.96;100.00
11448;BME280;43755;49.736;8.734;2023-02-19T01:06:40;98281.44;;;7.97;100.00
11448;BME280;43755;49.736;8.734;2023-02-19T01:08:42;98285.75;;;7.99;100.00
11448;BME280;43755;49.736;8.734;2023-02-19T01:10:44;98290.94;;;8.02;100.00
11448;BME280;43755;49.736;8.734;2023-02-19T01:12:45;98300.59;;;8.02;100.00
11448;BME280;43755;49.736;8.734;2023-02-19T01:14:46;98291.97;;;7.97;100.00
11448;BME280;43755;49.736;8.734;2023-02-19T01:16:49;98265.63;;;7.97;100.00
11448;BME280;43755;49.736;8.734;2023-02-19T01:18:51;98254.16;;;7.99;100.00
11448;BME280;43755;49.736;8.734;2023-02-19T01:20:52;98242.91;;;7.93;100.00
11448;BME280;43755;49.736;8.734;2023-02-19T01:22:53;98253.53;;;7.90;100.00
11448;BME280;43755;49.736;8.734;2023-02-19T01:24:55;98254.66;;;7.81;100.00
11448;BME280;43755;49.736;8.734;2023-02-19T01:26:56;98240.75;;;7.76;100.00
11448;BME280;43755;49.736;8.734;2023-02-19T01:28:58;98249.47;;;7.78;100.00
11448;BME280;43755;49.736;8.734;2023-02-19T01:31:01;98249.69;;;7.70;100.00
11448;BME280;43755;49.736;8.734;2023-02-19T01:33:04;98260.31;;;7.66;100.00
11448;BME280;43755;49.736;8.734;2023-02-19T01:35:05;98247.22;;;7.64;100.00
11448;BME280;43755;49.736;8.734;2023-02-19T01:37:07;98251.59;;;7.65;100.00
11448;BME280;43755;49.736;8.734;2023-02-19T01:39:11;98252.66;;;7.58;100.00
11448;BME280;43755;49.736;8.734;2023-02-19T01:41:14;98251.69;;;7.61;100.00
11448;BME280;43755;49.736;8.734;2023-02-19T01:43:16;98243.91;;;7.56;100.00
11448;BME280;43755;49.736;8.734;2023-02-19T01:45:24;98242.16;;;7.57;100.00
11448;BME280;43755;49.736;8.734;2023-02-19T01:47:26;98243.06;;;7.56;100.00
11448;BME280;43755;49.736;8.734;2023-02-19T01:49:30;98243.09;;;7.54;100.00
11448;BME280;43755;49.736;8.734;2023-02-19T01:51:34;98242.09;;;7.60;100.00
11448;BME280;43755;49.736;8.734;2023-02-19T01:53:39;98232.50;;;7.57;100.00
11448;BME280;43755;49.736;8.734;2023-02-19T01:55:45;98228.13;;;7.56;100.00
11448;BME280;43755;49.736;8.734;2023-02-19T01:57:51;98234.25;;;7.57;100.00
11448;BME280;43755;49.736;8.734;2023-02-19T01:59:56;98239.50;;;7.58;100.00
11448;BME280;43755;49.736;8.734;2023-02-19T02:01:59;98236.81;;;7.60;100.00
11448;BME280;43755;49.736;8.734;2023-02-19T02:04:00;98227.13;;;7.60;100.00
11448;BME280;43755;49.736;8.734;2023-02-19T02:06:08;98223.59;;;7.61;100.00
11448;BME280;43755;49.736;8.734;2023-02-19T02:08:13;98221.81;;;7.62;100.00
11448;BME280;43755;49.736;8.734;2023-02-19T02:10:32;98217.34;;;7.65;100.00
11448;BME280;43755;49.736;8.734;2023-02-19T02:12:33;98218.19;;;7.66;100.00
11448;BME280;43755;49.736;8.734;2023-02-19T02:14:39;98228.78;;;7.64;100.00
11448;BME280;43755;49.736;8.734;2023-02-19T02:16:45;98219.13;;;7.65;100.00
11448;BME280;43755;49.736;8.734;2023-02-19T02:19:01;98217.47;;;7.61;100.00
11448;BME280;43755;49.736;8.734;2023-02-19T02:21:32;98223.59;;;7.61;100.00
11448;BME280;43755;49.736;8.734;2023-02-19T02:23:44;98212.09;;;7.65;100.00
11448;BME280;43755;49.736;8.734;2023-02-19T02:25:59;98209.53;;;7.62;100.00
11448;BME280;43755;49.736;8.734;2023-02-19T02:28:21;98204.22;;;7.64;100.00
11448;BME280;43755;49.736;8.734;2023-02-19T02:30:38;98211.31;;;7.60;100.00
11448;BME280;43755;49.736;8.734;2023-02-19T02:32:45;98210.41;;;7.63;100.00
11448;BME280;43755;49.736;8.734;2023-02-19T02:34:55;98209.56;;;7.61;100.00
11448;BME280;43755;49.736;8.734;2023-02-19T02:36:59;98210.50;;;7.60;100.00
11448;BME280;43755;49.736;8.734;2023-02-19T02:39:01;98203.44;;;7.60;100.00
11448;BME280;43755;49.736;8.734;2023-02-19T02:41:06;98197.19;;;7.64;100.00
11448;BME280;43755;49.736;8.734;2023-02-19T02:43:08;98203.41;;;7.62;100.00
11448;BME280;43755;49.736;8.734;2023-02-19T02:45:26;98191.94;;;7.64;100.00
11448;BME280;43755;49.736;8.734;2023-02-19T02:47:40;98200.72;;;7.63;100.00
11448;BME280;43755;49.736;8.734;2023-02-19T02:49:44;98194.63;;;7.61;100.00
11448;BME280;43755;49.736;8.734;2023-02-19T02:52:04;98189.38;;;7.61;100.00
11448;BME280;43755;49.736;8.734;2023-02-19T02:54:28;98195.50;;;7.62;100.00
11448;BME280;43755;49.736;8.734;2023-02-19T02:56:50;98197.22;;;7.63;100.00
11448;BME280;43755;49.736;8.734;2023-02-19T02:58:52;98193.66;;;7.65;100.00
11448;BME280;43755;49.736;8.734;2023-02-19T03:00:59;98206.00;;;7.63;100.00
11448;BME280;43755;49.736;8.734;2023-02-19T03:03:23;98177.09;;;7.60;100.00
11448;BME280;43755;49.736;8.734;2023-02-19T03:05:26;98182.34;;;7.62;100.00
11448;BME280;43755;49.736;8.734;2023-02-19T03:07:49;98189.28;;;7.64;100.00
11448;BME280;43755;49.736;8.734;2023-02-19T03:09:53;98173.44;;;7.66;100.00
11448;BME280;43755;49.736;8.734;2023-02-19T03:11:59;98175.25;;;7.64;100.00
11448;BME280;43755;49.736;8.734;2023-02-19T03:14:24;98173.53;;;7.63;100.00
11448;BME280;43755;49.736;8.734;2023-02-19T03:16:47;98173.41;;;7.67;100.00
11448;BME280;43755;49.736;8.734;2023-02-19T03:19:12;98173.34;;;7.69;100.00
11448;BME280;43755;49.736;8.734;2023-02-19T03:21:22;98173.44;;;7.66;100.00
11448;BME280;43755;49.736;8.734;2023-02-19T03:23:26;98178.75;;;7.64;100.00
11448;BME280;43755;49.736;8.734;2023-02-19T03:25:44;98185.78;;;7.64;100.00
11448;BME280;43755;49.736;8.734;2023-02-19T03:28:11;98172.66;;;7.62;100.00
11448;BME280;43755;49.736;8.734;2023-02-19T03:30:17;98170.88;;;7.64;100.00
11448;BME280;43755;49.736;8.734;2023-02-19T03:32:22;98170.00;;;7.64;100.00
11448;BME280;43755;49.736;8.734;2023-02-19T03:34:29;98176.94;;;7.66;100.00
11448;BME280;43755;49.736;8.734;2023-02-19T03:36:36;98176.94;;;7.66;100.00
11448;BME280;43755;49.736;8.734;2023-02-19T03:38:43;98178.66;;;7.67;100.00
11448;BME280;43755;49.736;8.734;2023-02-19T03:40:54;98174.38;;;7.65;100.00
11448;BME280;43755;49.736;8.734;2023-02-19T03:43:02;98182.19;;;7.66;100.00
11448;BME280;43755;49.736;8.734;2023-02-19T03:45:24;98176.91;;;7.68;100.00
11448;BME280;43755;49.736;8.734;2023-02-19T03:47:31;98187.47;;;7.66;100.00
11448;BME280;43755;49.736;8.734;2023-02-19T03:49:40;98178.69;;;7.66;100.00
11448;BME280;43755;49.736;8.734;2023-02-19T03:51:46;98176.84;;;7.69;100.00
11448;BME280;43755;49.736;8.734;2023-02-19T03:53:52;98181.22;;;7.70;100.00
11448;BME280;43755;49.736;8.734;2023-02-19T03:56:05;98184.81;;;7.66;100.00
11448;BME280;43755;49.736;8.734;2023-02-19T03:58:13;98178.69;;;7.66;100.00
11448;BME280;43755;49.736;8.734;2023-02-19T04:00:17;98186.69;;;7.63;100.00
11448;BME280;43755;49.736;8.734;2023-02-19T04:02:25;98195.53;;;7.60;100.00
11448;BME280;43755;49.736;8.734;2023-02-19T04:04:31;98202.66;;;7.57;100.00
11448;BME280;43755;49.736;8.734;2023-02-19T04:06:37;98200.88;;;7.59;100.00
11448;BME280;43755;49.736;8.734;2023-02-19T04:08:43;98193.88;;;7.58;100.00
11448;BME280;43755;49.736;8.734;2023-02-19T04:10:46;98202.53;;;7.61;100.00
11448;BME280;43755;49.736;8.734;2023-02-19T04:12:51;98209.63;;;7.59;100.00
11448;BME280;43755;49.736;8.734;2023-02-19T04:14:58;98200.88;;;7.59;100.00
11448;BME280;43755;49.736;8.734;2023-02-19T04:17:07;98216.56;;;7.62;100.00
11448;BME280;43755;49.736;8.734;2023-02-19T04:19:11;98196.41;;;7.61;100.00
11448;BME280;43755;49.736;8.734;2023-02-19T04:21:14;98198.16;;;7.60;100.00
11448;BME280;43755;49.736;8.734;2023-02-19T04:23:22;98198.16;;;7.60;100.00
11448;BME280;43755;49.736;8.734;2023-02-19T04:25:26;98206.94;;;7.61;100.00
11448;BME280;43755;49.736;8.734;2023-02-19T04:27:29;98196.41;;;7.61;100.00
11448;BME280;43755;49.736;8.734;2023-02-19T04:29:31;98198.16;;;7.60;100.00
11448;BME280;43755;49.736;8.734;2023-02-19T04:31:34;98200.88;;;7.59;100.00
11448;BME280;43755;49.736;8.734;2023-02-19T04:33:36;98207.88;;;7.60;100.00
11448;BME280;43755;49.736;8.734;2023-02-19T04:35:37;98218.44;;;7.58;100.00
11448;BME280;43755;49.736;8.734;2023-02-19T04:37:39;98212.19;;;7.61;100.00
11448;BME280;43755;49.736;8.734;2023-02-19T04:39:41;98208.69;;;7.60;100.00
11448;BME280;43755;49.736;8.734;2023-02-19T04:41:43;98201.72;;;7.59;100.00
11448;BME280;43755;49.736;8.734;2023-02-19T04:43:44;98207.91;;;7.58;100.00
11448;BME280;43755;49.736;8.734;2023-02-19T04:45:46;98207.88;;;7.60;100.00
11448;BME280;43755;49.736;8.734;2023-02-19T04:47:47;98211.44;;;7.57;100.00
11448;BME280;43755;49.736;8.734;2023-02-19T04:49:48;98212.28;;;7.58;100.00
11448;BME280;43755;49.736;8.734;2023-02-19T04:51:50;98209.63;;;7.59;100.00
11448;BME280;43755;49.736;8.734;2023-02-19T04:53:51;98211.44;;;7.57;100.00
11448;BME280;43755;49.736;8.734;2023-02-19T04:55:54;98207.09;;;7.55;100.00
11448;BME280;43755;49.736;8.734;2023-02-19T04:57:55;98219.22;;;7.60;100.00
11448;BME280;43755;49.736;8.734;2023-02-19T04:59:57;98215.78;;;7.58;100.00
11448;BME280;43755;49.736;8.734;2023-02-19T05:01:58;98210.56;;;7.57;100.00
11448;BME280;43755;49.736;8.734;2023-02-19T05:03:59;98217.63;;;7.55;100.00
11448;BME280;43755;49.736;8.734;2023-02-19T05:06:01;98221.22;;;7.52;100.00
11448;BME280;43755;49.736;8.734;2023-02-19T05:08:03;98222.97;;;7.53;100.00
11448;BME280;43755;49.736;8.734;2023-02-19T05:10:05;98220.34;;;7.52;100.00
11448;BME280;43755;49.736;8.734;2023-02-19T05:12:08;98229.16;;;7.51;100.00
11448;BME280;43755;49.736;8.734;2023-02-19T05:14:09;98228.22;;;7.53;100.00
11448;BME280;43755;49.736;8.734;2023-02-19T05:16:12;98228.28;;;7.50;100.00
11448;BME280;43755;49.736;8.734;2023-02-19T05:18:15;98227.47;;;7.48;100.00
11448;BME280;43755;49.736;8.734;2023-02-19T05:20:16;98229.31;;;7.45;100.00
11448;BME280;43755;49.736;8.734;2023-02-19T05:22:18;98226.69;;;7.45;100.00
11448;BME280;43755;49.736;8.734;2023-02-19T05:24:19;98224.16;;;7.42;100.00
11448;BME280;43755;49.736;8.734;2023-02-19T05:26:22;98224.91;;;7.45;100.00
11448;BME280;43755;49.736;8.734;2023-02-19T05:28:25;98227.59;;;7.44;100.00
11448;BME280;43755;49.736;8.734;2023-02-19T05:30:28;98236.53;;;7.36;100.00
11448;BME280;43755;49.736;8.734;2023-02-19T05:32:30;98231.28;;;7.36;100.00
11448;BME280;43755;49.736;8.734;2023-02-19T05:34:31;98235.63;;;7.39;100.00
11448;BME280;43755;49.736;8.734;2023-02-19T05:36:32;98247.13;;;7.35;100.00
11448;BME280;43755;49.736;8.734;2023-02-19T05:38:36;98248.03;;;7.34;100.00
11448;BME280;43755;49.736;8.734;2023-02-19T05:40:38;98246.28;;;7.33;100.00
11448;BME280;43755;49.736;8.734;2023-02-19T05:42:40;98250.56;;;7.37;100.00
11448;BME280;43755;49.736;8.734;2023-02-19T05:44:42;98256.69;;;7.37;100.00
11448;BME280;43755;49.736;8.734;2023-02-19T05:46:44;98260.19;;;7.38;100.00
11448;BME280;43755;49.736;8.734;2023-02-19T05:48:46;98254.94;;;7.38;100.00
11448;BME280;43755;49.736;8.734;2023-02-19T05:50:47;98256.00;;;7.31;100.00
11448;BME280;43755;49.736;8.734;2023-02-19T05:52:49;98248.00;;;7.35;100.00
11448;BME280;43755;49.736;8.734;2023-02-19T05:54:50;98244.56;;;7.32;100.00
11448;BME280;43755;49.736;8.734;2023-02-19T05:56:51;98235.88;;;7.30;100.00
11448;BME280;43755;49.736;8.734;2023-02-19T05:58:53;98260.44;;;7.29;100.00
11448;BME280;43755;49.736;8.734;2023-02-19T06:00:56;98255.19;;;7.29;100.00
11448;BME280;43755;49.736;8.734;2023-02-19T06:02:58;98250.81;;;7.28;100.00
11448;BME280;43755;49.736;8.734;2023-02-19T06:04:59;98263.09;;;7.29;100.00
11448;BME280;43755;49.736;8.734;2023-02-19T06:07:00;98268.34;;;7.29;100.00
11448;BME280;43755;49.736;8.734;2023-02-19T06:09:02;98261.22;;;7.32;100.00
11448;BME280;43755;49.736;8.734;2023-02-19T06:11:04;98276.94;;;7.35;100.00
11448;BME280;43755;49.736;8.734;2023-02-19T06:13:06;98283.13;;;7.34;100.00
11448;BME280;43755;49.736;8.734;2023-02-19T06:15:08;98276.03;;;7.36;100.00
11448;BME280;43755;49.736;8.734;2023-02-19T06:17:10;98297.84;;;7.42;100.00
11448;BME280;43755;49.736;8.734;2023-02-19T06:19:12;98302.19;;;7.43;100.00
11448;BME280;43755;49.736;8.734;2023-02-19T06:21:15;98300.47;;;7.42;100.00
11448;BME280;43755;49.736;8.734;2023-02-19T06:23:16;98298.81;;;7.37;100.00
11448;BME280;43755;49.736;8.734;2023-02-19T06:25:18;98305.84;;;7.37;100.00
11448;BME280;43755;49.736;8.734;2023-02-19T06:27:20;98309.41;;;7.36;100.00
11448;BME280;43755;49.736;8.734;2023-02-19T06:29:21;98309.41;;;7.36;100.00
11448;BME280;43755;49.736;8.734;2023-02-19T06:31:23;98307.56;;;7.38;100.00
11448;BME280;43755;49.736;8.734;2023-02-19T06:33:26;98294.50;;;7.35;100.00
11448;BME280;43755;49.736;8.734;2023-02-19T06:35:27;98307.66;;;7.35;100.00
11448;BME280;43755;49.736;8.734;2023-02-19T06:37:29;98304.13;;;7.36;100.00
11448;BME280;43755;49.736;8.734;2023-02-19T06:39:30;98313.81;;;7.34;100.00
11448;BME280;43755;49.736;8.734;2023-02-19T06:41:32;98305.06;;;7.33;100.00
11448;BME280;43755;49.736;8.734;2023-02-19T06:43:34;98306.97;;;7.27;100.00
11448;BME280;43755;49.736;8.734;2023-02-19T06:45:35;98308.75;;;7.26;100.00
11448;BME280;43755;49.736;8.734;2023-02-19T06:47:37;98310.50;;;7.26;100.00
11448;BME280;43755;49.736;8.734;2023-02-19T06:49:39;98314.97;;;7.24;100.00
11448;BME280;43755;49.736;8.734;2023-02-19T06:51:41;98320.16;;;7.25;100.00
11448;BME280;43755;49.736;8.734;2023-02-19T06:53:43;98324.63;;;7.23;100.00
11448;BME280;43755;49.736;8.734;2023-02-19T06:55:54;98315.88;;;7.23;100.00
11448;BME280;43755;49.736;8.734;2023-02-19T06:57:56;98325.53;;;7.22;100.00
11448;BME280;43755;49.736;8.734;2023-02-19T06:59:57;98334.28;;;7.23;100.00
11448;BME280;43755;49.736;8.734;2023-02-19T07:01:59;98327.25;;;7.23;100.00
11448;BME280;43755;49.736;8.734;2023-02-19T07:04:01;98327.19;;;7.25;100.00
11448;BME280;43755;49.736;8.734;2023-02-19T07:06:04;98331.63;;;7.24;100.00
11448;BME280;43755;49.736;8.734;2023-02-19T07:08:06;98330.66;;;7.27;100.00
11448;BME280;43755;49.736;8.734;2023-02-19T07:10:07;98356.13;;;7.26;100.00
11448;BME280;43755;49.736;8.734;2023-02-19T07:12:08;98350.94;;;7.23;100.00
11448;BME280;43755;49.736;8.734;2023-02-19T07:14:13;98355.34;;;7.23;100.00
11448;BME280;43755;49.736;8.734;2023-02-19T07:16:15;98350.09;;;7.21;100.00
11448;BME280;43755;49.736;8.734;2023-02-19T07:18:18;98350.13;;;7.20;100.00
11448;BME280;43755;49.736;8.734;2023-02-19T07:20:19;98361.53;;;7.20;100.00
11448;BME280;43755;49.736;8.734;2023-02-19T07:22:22;98352.69;;;7.24;100.00
11448;BME280;43755;49.736;8.734;2023-02-19T07:24:23;98354.44;;;7.24;100.00
11448;BME280;43755;49.736;8.734;2023-02-19T07:26:25;98357.94;;;7.24;100.00
11448;BME280;43755;49.736;8.734;2023-02-19T07:28:26;98370.00;;;7.33;100.00
11448;BME280;43755;49.736;8.734;2023-02-19T07:30:27;98364.81;;;7.30;100.00
11448;BME280;43755;49.736;8.734;2023-02-19T07:32:29;98366.44;;;7.35;100.00
11448;BME280;43755;49.736;8.734;2023-02-19T07:34:30;98352.41;;;7.35;100.00
11448;BME280;43755;49.736;8.734;2023-02-19T07:36:32;98367.22;;;7.39;100.00
11448;BME280;43755;49.736;8.734;2023-02-19T07:38:35;98375.13;;;7.37;100.00
11448;BME280;43755;49.736;8.734;2023-02-19T07:40:36;98383.03;;;7.37;100.00
11448;BME280;43755;49.736;8.734;2023-02-19T07:42:38;98383.03;;;7.37;100.00
11448;BME280;43755;49.736;8.734;2023-02-19T07:44:39;98375.97;;;7.39;100.00
11448;BME280;43755;49.736;8.734;2023-02-19T07:46:41;98370.69;;;7.41;100.00
11448;BME280;43755;49.736;8.734;2023-02-19T07:48:42;98380.38;;;7.39;100.00
11448;BME280;43755;49.736;8.734;2023-02-19T07:50:49;98383.84;;;7.41;100.00
11448;BME280;43755;49.736;8.734;2023-02-19T07:52:51;98381.94;;;7.48;100.00
11448;BME280;43755;49.736;8.734;2023-02-19T07:54:54;98391.50;;;7.50;100.00
11448;BME280;43755;49.736;8.734;2023-02-19T07:56:55;98384.47;;;7.51;100.00
11448;BME280;43755;49.736;8.734;2023-02-19T07:58:58;98392.22;;;7.57;100.00
11448;BME280;43755;49.736;8.734;2023-02-19T08:01:06;98398.38;;;7.57;100.00
11448;BME280;43755;49.736;8.734;2023-02-19T08:03:08;98411.53;;;7.57;100.00
11448;BME280;43755;49.736;8.734;2023-02-19T08:05:08;98413.28;;;7.57;100.00
11448;BME280;43755;49.736;8.734;2023-02-19T08:07:10;98410.47;;;7.64;100.00
11448;BME280;43755;49.736;8.734;2023-02-19T08:09:12;98409.59;;;7.65;100.00
11448;BME280;43755;49.736;8.734;2023-02-19T08:11:15;98408.56;;;7.71;100.00
11448;BME280;43755;49.736;8.734;2023-02-19T08:13:34;98408.59;;;7.69;100.00
11448;BME280;43755;49.736;8.734;2023-02-19T08:15:35;98410.22;;;7.75;100.00
11448;BME280;43755;49.736;8.734;2023-02-19T08:17:36;98410.34;;;7.70;100.00
11448;BME280;43755;49.736;8.734;2023-02-19T08:19:38;98413.91;;;7.66;100.00
11448;BME280;43755;49.736;8.734;2023-02-19T08:21:39;98415.50;;;7.73;100.00
11448;BME280;43755;49.736;8.734;2023-02-19T08:23:41;98412.75;;;7.78;100.00
11448;BME280;43755;49.736;8.734;2023-02-19T08:25:42;98425.88;;;7.79;100.00
11448;BME280;43755;49.736;8.734;2023-02-19T08:27:45;98427.44;;;7.88;100.00
11448;BME280;43755;49.736;8.734;2023-02-19T08:29:46;98424.00;;;7.85;100.00
11448;BME280;43755;49.736;8.734;2023-02-19T08:31:48;98426.31;;;7.97;100.00
11448;BME280;43755;49.736;8.734;2023-02-19T08:33:49;98435.97;;;7.98;100.00
11448;BME280;43755;49.736;8.734;2023-02-19T08:35:51;98435.13;;;7.96;100.00
11448;BME280;43755;49.736;8.734;2023-02-19T08:37:54;98445.59;;;7.99;100.00
11448;BME280;43755;49.736;8.734;2023-02-19T08:39:55;98449.06;;;8.01;100.00
11448;BME280;43755;49.736;8.734;2023-02-19T08:41:57;98453.25;;;8.08;100.00
11448;BME280;43755;49.736;8.734;2023-02-19T08:44:00;98451.47;;;8.10;100.00
11448;BME280;43755;49.736;8.734;2023-02-19T08:46:01;98458.53;;;8.08;100.00
11448;BME280;43755;49.736;8.734;2023-02-19T08:48:03;98463.72;;;8.12;100.00
11448;BME280;43755;49.736;8.734;2023-02-19T08:50:06;98463.81;;;8.08;100.00
11448;BME280;43755;49.736;8.734;2023-02-19T08:52:08;98469.03;;;8.09;100.00
11448;BME280;43755;49.736;8.734;2023-02-19T08:54:09;98471.72;;;8.08;100.00
11448;BME280;43755;49.736;8.734;2023-02-19T08:56:12;98468.28;;;8.06;100.00
11448;BME280;43755;49.736;8.734;2023-02-19T08:58:14;98471.72;;;8.08;100.00
11448;BME280;43755;49.736;8.734;2023-02-19T09:00:17;98482.03;;;8.17;100.00
11448;BME280;43755;49.736;8.734;2023-02-19T09:02:20;98485.44;;;8.20;100.00
11448;BME280;43755;49.736;8.734;2023-02-19T09:04:22;98482.81;;;8.20;100.00
11448;BME280;43755;49.736;8.734;2023-02-19T09:06:23;98487.19;;;8.21;100.00
11448;BME280;43755;49.736;8.734;2023-02-19T09:08:24;98493.31;;;8.22;100.00
11448;BME280;43755;49.736;8.734;2023-02-19T09:10:26;98495.97;;;8.22;100.00
11448;BME280;43755;49.736;8.734;2023-02-19T09:12:27;98489.84;;;8.20;100.00
11448;BME280;43755;49.736;8.734;2023-02-19T09:14:30;98482.03;;;8.17;100.00
11448;BME280;43755;49.736;8.734;2023-02-19T09:16:33;98491.59;;;8.21;100.00
11448;BME280;43755;49.736;8.734;2023-02-19T09:18:34;98494.16;;;8.24;100.00
11448;BME280;43755;49.736;8.734;2023-02-19T09:20:36;98500.19;;;8.29;100.00
11448;BME280;43755;49.736;8.734;2023-02-19T09:22:37;98502.13;;;8.21;100.00
11448;BME280;43755;49.736;8.734;2023-02-19T09:24:39;98499.34;;;8.27;100.00
11448;BME280;43755;49.736;8.734;2023-02-19T09:26:40;98501.97;;;8.27;100.00
11448;BME280;43755;49.736;8.734;2023-02-19T09:28:41;98502.72;;;8.34;100.00
11448;BME280;43755;49.736;8.734;2023-02-19T09:30:43;98499.97;;;8.37;100.00
11448;BME280;43755;49.736;8.734;2023-02-19T09:32:45;98497.19;;;8.43;100.00
11448;BME280;43755;49.736;8.734;2023-02-19T09:34:48;98495.22;;;8.51;100.00
11448;BME280;43755;49.736;8.734;2023-02-19T09:36:50;98503.09;;;8.52;100.00
11448;BME280;43755;49.736;8.734;2023-02-19T09:38:52;98498.69;;;8.53;100.00
11448;BME280;43755;49.736;8.734;2023-02-19T09:40:55;98501.91;;;8.64;100.00
11448;BME280;43755;49.736;8.734;2023-02-19T09:42:57;98507.06;;;8.69;100.00
11448;BME280;43755;49.736;8.734;2023-02-19T09:45:00;98508.69;;;8.73;100.00
11448;BME280;43755;49.736;8.734;2023-02-19T09:47:05;98492.94;;;8.71;100.00
11448;BME280;43755;49.736;8.734;2023-02-19T09:49:14;98506.16;;;8.70;100.00
11448;BME280;43755;49.736;8.734;2023-02-19T09:51:16;98498.13;;;8.73;100.00
11448;BME280;43755;49.736;8.734;2023-02-19T09:53:22;98506.00;;;8.76;100.00
11448;BME280;43755;49.736;8.734;2023-02-19T09:55:29;98502.63;;;8.71;100.00
11448;BME280;43755;49.736;8.734;2023-02-19T09:57:32;98503.66;;;8.65;100.00
11448;BME280;43755;49.736;8.734;2023-02-19T09:59:39;98508.81;;;8.68;100.00
11448;BME280;43755;49.736;8.734;2023-02-19T10:01:42;98505.25;;;8.71;100.00
11448;BME280;43755;49.736;8.734;2023-02-19T10:03:46;98513.97;;;8.73;100.00
11448;BME280;43755;49.736;8.734;2023-02-19T10:05:49;98499.91;;;8.72;100.00
11448;BME280;43755;49.736;8.734;2023-02-19T10:07:52;98507.63;;;8.80;100.00
11448;BME280;43755;49.736;8.734;2023-02-19T10:09:57;98499.50;;;8.87;100.00
11448;BME280;43755;49.736;8.734;2023-02-19T10:12:00;98494.28;;;8.84;100.00
11448;BME280;43755;49.736;8.734;2023-02-19T10:14:04;98503.03;;;8.86;100.00
11448;BME280;43755;49.736;8.734;2023-02-19T10:16:11;98515.22;;;8.90;100.00
11448;BME280;43755;49.736;8.734;2023-02-19T10:18:16;98508.28;;;8.88;100.00
11448;BME280;43755;49.736;8.734;2023-02-19T10:20:20;98511.72;;;8.90;100.00
11448;BME280;43755;49.736;8.734;2023-02-19T10:22:28;98517.13;;;8.85;100.00
11448;BME280;43755;49.736;8.734;2023-02-19T10:24:30;98521.47;;;8.88;100.00
11448;BME280;43755;49.736;8.734;2023-02-19T10:26:32;98527.19;;;9.03;100.00
11448;BME280;43755;49.736;8.734;2023-02-19T10:28:36;98531.38;;;9.11;100.00
11448;BME280;43755;49.736;8.734;2023-02-19T10:30:38;98529.16;;;9.26;100.00
11448;BME280;43755;49.736;8.734;2023-02-19T10:32:57;98538.63;;;9.33;100.00
11448;BME280;43755;49.736;8.734;2023-02-19T10:35:08;98535.72;;;9.42;100.00
11448;BME280;43755;49.736;8.734;2023-02-19T10:37:13;98543.09;;;9.31;100.00
11448;BME280;43755;49.736;8.734;2023-02-19T10:39:37;98542.69;;;9.45;100.00
11448;BME280;43755;49.736;8.734;2023-02-19T10:41:41;98538.84;;;9.26;100.00
11448;BME280;43755;49.736;8.734;2023-02-19T10:43:50;98537.97;;;9.25;100.00
11448;BME280;43755;49.736;8.734;2023-02-19T10:45:53;98547.56;;;9.29;100.00
11448;BME280;43755;49.736;8.734;2023-02-19T10:47:55;98555.34;;;9.34;100.00
11448;BME280;43755;49.736;8.734;2023-02-19T10:49:58;98536.94;;;9.31;100.00
11448;BME280;43755;49.736;8.734;2023-02-19T10:52:02;98544.03;;;9.30;100.00
11448;BME280;43755;49.736;8.734;2023-02-19T10:54:19;98550.47;;;9.20;100.00
11448;BME280;43755;49.736;8.734;2023-02-19T10:56:24;98546.16;;;9.18;100.00
11448;BME280;43755;49.736;8.734;2023-02-19T10:58:25;98541.78;;;9.17;100.00